sensor_id;sensor_type;location;lat;lon;timestamp;pressure;altitude;pressure_sealevel;temperature;humidity
10460;BME280;54412;51.206;6.888;2024-03-07T00:02:19;101746.09;;;8.77;87.02
10460;BME280;54412;51.206;6.888;2024-03-07T00:04:45;101741.34;;;8.91;86.66
10460;BME280;54412;51.206;6.888;2024-03-07T00:07:11;101740.88;;;8.75;87.66
10460;BME280;54412;51.206;6.888;2024-03-07T00:09:37;101736.44;;;8.77;87.52
10460;BME280;54412;51.206;6.888;2024-03-07T00:12:04;101743.78;;;8.65;88.41
10460;BME280;54412;51.206;6.888;2024-03-07T00:14:31;101740.28;;;8.64;87.97
10460;BME280;54412;51.206;6.888;2024-03-07T00:16:58;101743.88;;;8.62;88.04
10460;BME280;54412;51.206;6.888;2024-03-07T00:19:24;101750.56;;;8.73;87.21
10460;BME280;54412;51.206;6.888;2024-03-07T00:21:59;101747.06;;;8.73;87.19
10460;BME280;54412;51.206;6.888;2024-03-07T00:24:25;101747.25;;;8.67;87.24
10460;BME280;54412;51.206;6.888;2024-03-07T00:26:53;101749.66;;;8.76;86.75
10460;BME280;54412;51.206;6.888;2024-03-07T00:29:19;101737.66;;;8.64;86.54
10460;BME280;54412;51.206;6.888;2024-03-07T00:31:46;101749.00;;;8.66;86.24
10460;BME280;54412;51.206;6.888;2024-03-07T00:34:13;101739.63;;;8.55;86.27
10460;BME280;54412;51.206;6.888;2024-03-07T00:36:44;101751.75;;;8.62;86.75
10460;BME280;54412;51.206;6.888;2024-03-07T00:39:10;101752.53;;;8.65;86.69
10460;BME280;54412;51.206;6.888;2024-03-07T00:41:41;101737.69;;;8.63;86.19
10460;BME280;54412;51.206;6.888;2024-03-07T00:44:08;101750.56;;;8.73;85.68
10460;BME280;54412;51.206;6.888;2024-03-07T00:46:36;101740.47;;;8.57;85.86
10460;BME280;54412;51.206;6.888;2024-03-07T00:49:02;101748.91;;;8.34;86.47
10460;BME280;54412;51.206;6.888;2024-03-07T00:51:28;101743.50;;;8.40;86.56
10460;BME280;54412;51.206;6.888;2024-03-07T00:53:54;101744.09;;;8.51;86.31
10460;BME280;54412;51.206;6.888;2024-03-07T00:56:20;101738.38;;;8.34;86.57
10460;BME280;54412;51.206;6.888;2024-03-07T00:58:50;101738.34;;;8.35;86.91
10460;BME280;54412;51.206;6.888;2024-03-07T01:01:17;101731.16;;;8.42;87.06
10460;BME280;54412;51.206;6.888;2024-03-07T01:03:44;101733.22;;;8.29;86.94
10460;BME280;54412;51.206;6.888;2024-03-07T01:06:10;101739.94;;;8.42;87.28
10460;BME280;54412;51.206;6.888;2024-03-07T01:08:37;101727.22;;;8.23;87.07
10460;BME280;54412;51.206;6.888;2024-03-07T01:11:04;101737.09;;;8.12;87.60
10460;BME280;54412;51.206;6.888;2024-03-07T01:13:40;101738.34;;;8.35;87.46
10460;BME280;54412;51.206;6.888;2024-03-07T01:16:07;101733.00;;;8.40;87.06
10460;BME280;54412;51.206;6.888;2024-03-07T01:18:34;101734.81;;;8.36;87.60
10460;BME280;54412;51.206;6.888;2024-03-07T01:21:01;101737.63;;;8.29;87.68
10460;BME280;54412;51.206;6.888;2024-03-07T01:23:26;101728.03;;;8.26;87.65
10460;BME280;54412;51.206;6.888;2024-03-07T01:25:55;101726.06;;;8.36;86.92
10460;BME280;54412;51.206;6.888;2024-03-07T01:28:23;101728.09;;;8.25;86.95
10460;BME280;54412;51.206;6.888;2024-03-07T01:30:52;101721.97;;;8.23;87.27
10460;BME280;54412;51.206;6.888;2024-03-07T01:33:18;101719.25;;;8.27;87.45
10460;BME280;54412;51.206;6.888;2024-03-07T01:35:45;101714.19;;;8.18;87.45
10460;BME280;54412;51.206;6.888;2024-03-07T01:38:11;101720.22;;;8.23;86.80
10460;BME280;54412;51.206;6.888;2024-03-07T01:40:40;101714.84;;;8.28;86.09
10460;BME280;54412;51.206;6.888;2024-03-07T01:43:07;101709.81;;;8.17;86.17
10460;BME280;54412;51.206;6.888;2024-03-07T01:45:33;101710.56;;;8.24;86.26
10460;BME280;54412;51.206;6.888;2024-03-07T01:47:59;101710.75;;;8.16;86.80
10460;BME280;54412;51.206;6.888;2024-03-07T01:50:25;101709.81;;;8.17;86.02
10460;BME280;54412;51.206;6.888;2024-03-07T01:52:52;101706.38;;;8.15;86.04
10460;BME280;54412;51.206;6.888;2024-03-07T01:55:22;101700.09;;;8.21;85.65
10460;BME280;54412;51.206;6.888;2024-03-07T01:57:49;101699.28;;;8.19;86.05
10460;BME280;54412;51.206;6.888;2024-03-07T02:00:15;101699.66;;;8.02;86.69
10460;BME280;54412;51.206;6.888;2024-03-07T02:02:41;101689.97;;;8.06;86.36
10460;BME280;54412;51.206;6.888;2024-03-07T02:05:08;101693.41;;;8.08;86.28
10460;BME280;54412;51.206;6.888;2024-03-07T02:07:33;101693.25;;;8.14;85.94
10460;BME280;54412;51.206;6.888;2024-03-07T02:10:06;101693.31;;;8.12;85.55
10460;BME280;54412;51.206;6.888;2024-03-07T02:12:32;101691.75;;;8.04;85.26
10460;BME280;54412;51.206;6.888;2024-03-07T02:14:59;101688.13;;;8.09;85.47
10460;BME280;54412;51.206;6.888;2024-03-07T02:17:25;101682.75;;;8.14;85.28
10460;BME280;54412;51.206;6.888;2024-03-07T02:19:51;101669.69;;;8.11;85.35
10460;BME280;54412;51.206;6.888;2024-03-07T02:22:18;101682.09;;;8.04;85.56
10460;BME280;54412;51.206;6.888;2024-03-07T02:24:44;101674.28;;;8.01;85.48
10460;BME280;54412;51.206;6.888;2024-03-07T02:27:11;101671.78;;;7.95;85.40
10460;BME280;54412;51.206;6.888;2024-03-07T02:29:37;101682.13;;;8.03;85.28
10460;BME280;54412;51.206;6.888;2024-03-07T02:32:03;101671.63;;;8.03;84.67
10460;BME280;54412;51.206;6.888;2024-03-07T02:34:29;101672.84;;;7.88;85.10
10460;BME280;54412;51.206;6.888;2024-03-07T02:36:55;101668.56;;;7.83;85.55
10460;BME280;54412;51.206;6.888;2024-03-07T02:39:21;101662.13;;;7.97;85.35
10460;BME280;54412;51.206;6.888;2024-03-07T02:41:47;101668.16;;;8.01;84.03
10460;BME280;54412;51.206;6.888;2024-03-07T02:44:14;101658.69;;;7.94;84.67
10460;BME280;54412;51.206;6.888;2024-03-07T02:46:40;101658.19;;;8.16;83.78
10460;BME280;54412;51.206;6.888;2024-03-07T02:49:06;101666.53;;;7.97;83.80
10460;BME280;54412;51.206;6.888;2024-03-07T02:51:31;101664.78;;;7.56;85.06
10460;BME280;54412;51.206;6.888;2024-03-07T02:53:57;101659.06;;;7.37;86.24
10460;BME280;54412;51.206;6.888;2024-03-07T02:56:24;101662.84;;;7.66;85.85
10460;BME280;54412;51.206;6.888;2024-03-07T02:58:51;101660.63;;;7.87;84.77
10460;BME280;54412;51.206;6.888;2024-03-07T03:01:17;101660.34;;;7.60;85.17
10460;BME280;54412;51.206;6.888;2024-03-07T03:03:43;101658.97;;;7.42;86.51
10460;BME280;54412;51.206;6.888;2024-03-07T03:06:10;101655.44;;;7.43;86.04
10460;BME280;54412;51.206;6.888;2024-03-07T03:08:36;101655.97;;;7.19;86.88
10460;BME280;54412;51.206;6.888;2024-03-07T03:11:02;101651.81;;;7.50;86.26
10460;BME280;54412;51.206;6.888;2024-03-07T03:13:29;101656.84;;;7.59;85.67
10460;BME280;54412;51.206;6.888;2024-03-07T03:15:58;101650.97;;;7.48;85.58
10460;BME280;54412;51.206;6.888;2024-03-07T03:18:24;101658.72;;;7.54;85.25
10460;BME280;54412;51.206;6.888;2024-03-07T03:20:50;101652.69;;;7.49;85.09
10460;BME280;54412;51.206;6.888;2024-03-07T03:23:18;101643.78;;;7.56;85.34
10460;BME280;54412;51.206;6.888;2024-03-07T03:25:44;101649.50;;;7.35;86.39
10460;BME280;54412;51.206;6.888;2024-03-07T03:28:10;101642.06;;;7.14;86.41
10460;BME280;54412;51.206;6.888;2024-03-07T03:30:41;101645.59;;;7.54;85.50
10460;BME280;54412;51.206;6.888;2024-03-07T03:33:07;101640.28;;;7.56;85.03
10460;BME280;54412;51.206;6.888;2024-03-07T03:35:36;101637.78;;;7.51;84.80
10460;BME280;54412;51.206;6.888;2024-03-07T03:38:02;101636.13;;;7.47;84.95
10460;BME280;54412;51.206;6.888;2024-03-07T03:40:28;101634.88;;;7.63;84.10
10460;BME280;54412;51.206;6.888;2024-03-07T03:42:54;101639.56;;;7.49;84.92
10460;BME280;54412;51.206;6.888;2024-03-07T03:45:20;101632.16;;;7.28;85.00
10460;BME280;54412;51.206;6.888;2024-03-07T03:47:46;101637.91;;;7.45;85.22
10460;BME280;54412;51.206;6.888;2024-03-07T03:50:13;101626.78;;;7.32;85.76
10460;BME280;54412;51.206;6.888;2024-03-07T03:52:40;101627.63;;;7.34;85.52
10460;BME280;54412;51.206;6.888;2024-03-07T03:55:07;101624.84;;;7.42;85.99
10460;BME280;54412;51.206;6.888;2024-03-07T03:57:36;101635.97;;;7.55;84.99
10460;BME280;54412;51.206;6.888;2024-03-07T04:00:05;101630.75;;;7.53;84.83
10460;BME280;54412;51.206;6.888;2024-03-07T04:02:39;101630.06;;;7.43;84.80
10460;BME280;54412;51.206;6.888;2024-03-07T04:05:05;101630.03;;;7.45;85.11
10460;BME280;54412;51.206;6.888;2024-03-07T04:07:31;101626.84;;;7.31;84.82
10460;BME280;54412;51.206;6.888;2024-03-07T04:09:57;101623.38;;;7.29;85.47
10460;BME280;54412;51.206;6.888;2024-03-07T04:12:26;101625.56;;;7.07;86.16
10460;BME280;54412;51.206;6.888;2024-03-07T04:14:53;101622.16;;;7.04;86.56
10460;BME280;54412;51.206;6.888;2024-03-07T04:17:21;101619.31;;;7.14;85.77
10460;BME280;54412;51.206;6.888;2024-03-07T04:19:47;101620.03;;;7.22;85.76
10460;BME280;54412;51.206;6.888;2024-03-07T04:22:13;101614.41;;;6.96;86.05
10460;BME280;54412;51.206;6.888;2024-03-07T04:24:39;101620.94;;;7.20;85.24
10460;BME280;54412;51.206;6.888;2024-03-07T04:27:06;101621.22;;;7.06;85.77
10460;BME280;54412;51.206;6.888;2024-03-07T04:29:33;101618.69;;;7.02;85.29
10460;BME280;54412;51.206;6.888;2024-03-07T04:32:00;101625.41;;;7.15;85.14
10460;BME280;54412;51.206;6.888;2024-03-07T04:34:27;101617.94;;;6.95;86.30
10460;BME280;54412;51.206;6.888;2024-03-07T04:36:57;101616.84;;;7.07;85.56
10460;BME280;54412;51.206;6.888;2024-03-07T04:39:25;101620.47;;;7.01;85.20
10460;BME280;54412;51.206;6.888;2024-03-07T04:41:59;101617.69;;;7.07;85.13
10460;BME280;54412;51.206;6.888;2024-03-07T04:44:26;101629.53;;;6.85;86.21
10460;BME280;54412;51.206;6.888;2024-03-07T04:46:52;101619.66;;;6.96;86.19
10460;BME280;54412;51.206;6.888;2024-03-07T04:49:26;101628.50;;;6.91;86.71
10460;BME280;54412;51.206;6.888;2024-03-07T04:51:53;101619.34;;;7.13;85.87
10460;BME280;54412;51.206;6.888;2024-03-07T04:54:21;101619.56;;;7.02;85.86
10460;BME280;54412;51.206;6.888;2024-03-07T04:56:48;101625.38;;;7.16;85.68
10460;BME280;54412;51.206;6.888;2024-03-07T04:59:15;101632.00;;;6.91;85.97
10460;BME280;54412;51.206;6.888;2024-03-07T05:01:42;101626.34;;;7.14;85.60
10460;BME280;54412;51.206;6.888;2024-03-07T05:04:09;101627.34;;;7.05;85.47
10460;BME280;54412;51.206;6.888;2024-03-07T05:06:34;101626.06;;;6.82;85.96
10460;BME280;54412;51.206;6.888;2024-03-07T05:09:05;101631.09;;;6.94;85.52
10460;BME280;54412;51.206;6.888;2024-03-07T05:11:33;101625.13;;;6.86;85.55
10460;BME280;54412;51.206;6.888;2024-03-07T05:14:00;101632.00;;;6.91;85.43
10460;BME280;54412;51.206;6.888;2024-03-07T05:16:27;101627.41;;;7.04;85.04
10460;BME280;54412;51.206;6.888;2024-03-07T05:18:53;101627.72;;;6.87;85.46
10460;BME280;54412;51.206;6.888;2024-03-07T05:21:20;101626.13;;;6.79;86.87
10460;BME280;54412;51.206;6.888;2024-03-07T05:24:07;101626.41;;;7.09;84.87
10460;BME280;54412;51.206;6.888;2024-03-07T05:26:36;101628.41;;;6.97;84.83
10460;BME280;54412;51.206;6.888;2024-03-07T05:29:10;101634.53;;;6.97;85.31
10460;BME280;54412;51.206;6.888;2024-03-07T05:31:39;101622.97;;;7.06;84.32
10460;BME280;54412;51.206;6.888;2024-03-07T05:34:15;101630.84;;;7.06;84.22
10460;BME280;54412;51.206;6.888;2024-03-07T05:36:45;101625.28;;;6.77;85.20
10460;BME280;54412;51.206;6.888;2024-03-07T05:39:16;101630.56;;;6.75;84.82
10460;BME280;54412;51.206;6.888;2024-03-07T05:41:44;101638.19;;;6.87;85.29
10460;BME280;54412;51.206;6.888;2024-03-07T05:44:14;101624.16;;;6.91;85.20
10460;BME280;54412;51.206;6.888;2024-03-07T05:46:42;101631.00;;;6.98;84.35
10460;BME280;54412;51.206;6.888;2024-03-07T05:49:13;101629.53;;;6.84;85.64
10460;BME280;54412;51.206;6.888;2024-03-07T05:51:39;101625.16;;;6.84;85.09
10460;BME280;54412;51.206;6.888;2024-03-07T05:54:07;101626.91;;;6.85;84.98
10460;BME280;54412;51.206;6.888;2024-03-07T05:56:34;101616.13;;;6.99;85.00
10460;BME280;54412;51.206;6.888;2024-03-07T05:59:02;101624.53;;;6.72;85.01
10460;BME280;54412;51.206;6.888;2024-03-07T06:01:31;101627.63;;;6.92;84.19
10460;BME280;54412;51.206;6.888;2024-03-07T06:03:58;101627.56;;;6.95;84.28
10460;BME280;54412;51.206;6.888;2024-03-07T06:06:25;101621.66;;;6.85;84.26
10460;BME280;54412;51.206;6.888;2024-03-07T06:08:51;101629.56;;;6.82;84.70
10460;BME280;54412;51.206;6.888;2024-03-07T06:11:16;101622.03;;;6.64;84.89
10460;BME280;54412;51.206;6.888;2024-03-07T06:13:47;101625.09;;;6.89;84.59
10460;BME280;54412;51.206;6.888;2024-03-07T06:16:13;101621.06;;;6.70;84.95
10460;BME280;54412;51.206;6.888;2024-03-07T06:18:43;101621.28;;;6.58;85.85
10460;BME280;54412;51.206;6.888;2024-03-07T06:21:08;101633.19;;;6.75;85.33
10460;BME280;54412;51.206;6.888;2024-03-07T06:23:34;101625.63;;;6.59;85.25
10460;BME280;54412;51.206;6.888;2024-03-07T06:26:00;101626.13;;;6.79;85.39
10460;BME280;54412;51.206;6.888;2024-03-07T06:28:26;101624.75;;;6.60;85.55
10460;BME280;54412;51.206;6.888;2024-03-07T06:30:55;101630.59;;;6.74;85.11
10460;BME280;54412;51.206;6.888;2024-03-07T06:33:22;101631.31;;;6.83;84.41
10460;BME280;54412;51.206;6.888;2024-03-07T06:35:48;101626.81;;;6.90;84.36
10460;BME280;54412;51.206;6.888;2024-03-07T06:38:14;101627.59;;;6.93;84.14
10460;BME280;54412;51.206;6.888;2024-03-07T06:40:41;101625.41;;;6.72;84.88
10460;BME280;54412;51.206;6.888;2024-03-07T06:43:10;101623.28;;;6.92;84.37
10460;BME280;54412;51.206;6.888;2024-03-07T06:45:37;101617.88;;;6.98;83.74
10460;BME280;54412;51.206;6.888;2024-03-07T06:48:07;101621.56;;;6.90;84.09
10460;BME280;54412;51.206;6.888;2024-03-07T06:50:37;101620.66;;;6.92;83.89
10460;BME280;54412;51.206;6.888;2024-03-07T06:53:06;101631.50;;;7.17;83.02
10460;BME280;54412;51.206;6.888;2024-03-07T06:55:33;101627.16;;;7.56;81.49
10460;BME280;54412;51.206;6.888;2024-03-07T06:58:01;101628.03;;;7.56;82.11
10460;BME280;54412;51.206;6.888;2024-03-07T07:00:30;101623.81;;;7.08;82.42
10460;BME280;54412;51.206;6.888;2024-03-07T07:02:59;101629.16;;;7.46;81.41
10460;BME280;54412;51.206;6.888;2024-03-07T07:05:24;101623.28;;;7.33;81.75
10460;BME280;54412;51.206;6.888;2024-03-07T07:07:50;101631.66;;;7.51;82.03
10460;BME280;54412;51.206;6.888;2024-03-07T07:10:16;101634.66;;;7.32;82.08
10460;BME280;54412;51.206;6.888;2024-03-07T07:12:47;101633.00;;;7.30;81.53
10460;BME280;54412;51.206;6.888;2024-03-07T07:15:18;101631.13;;;7.35;81.79
10460;BME280;54412;51.206;6.888;2024-03-07T07:17:47;101626.03;;;7.27;81.90
10460;BME280;54412;51.206;6.888;2024-03-07T07:20:18;101626.41;;;7.09;82.33
10460;BME280;54412;51.206;6.888;2024-03-07T07:22:47;101640.00;;;7.29;81.96
10460;BME280;54412;51.206;6.888;2024-03-07T07:25:14;101636.34;;;7.36;81.51
10460;BME280;54412;51.206;6.888;2024-03-07T07:27:48;101628.13;;;7.53;80.79
10460;BME280;54412;51.206;6.888;2024-03-07T07:30:19;101632.53;;;7.51;80.57
10460;BME280;54412;51.206;6.888;2024-03-07T07:32:49;101626.75;;;7.75;79.94
10460;BME280;54412;51.206;6.888;2024-03-07T07:35:16;101637.47;;;7.65;79.94
10460;BME280;54412;51.206;6.888;2024-03-07T07:37:44;101628.72;;;7.66;79.62
10460;BME280;54412;51.206;6.888;2024-03-07T07:40:13;101626.47;;;7.87;78.69
10460;BME280;54412;51.206;6.888;2024-03-07T07:42:41;101626.47;;;7.87;79.07
10460;BME280;54412;51.206;6.888;2024-03-07T07:45:09;101626.03;;;8.05;78.18
10460;BME280;54412;51.206;6.888;2024-03-07T07:47:46;101619.31;;;8.30;77.53
10460;BME280;54412;51.206;6.888;2024-03-07T07:50:17;101616.44;;;8.39;76.93
10460;BME280;54412;51.206;6.888;2024-03-07T07:52:49;101621.00;;;8.67;75.38
10460;BME280;54412;51.206;6.888;2024-03-07T07:55:28;101621.00;;;8.99;74.33
10460;BME280;54412;51.206;6.888;2024-03-07T07:57:59;101629.00;;;8.94;74.20
10460;BME280;54412;51.206;6.888;2024-03-07T08:00:27;101620.88;;;9.02;75.03
10460;BME280;54412;51.206;6.888;2024-03-07T08:02:57;101621.81;;;9.01;74.15
10460;BME280;54412;51.206;6.888;2024-03-07T08:05:31;101617.84;;;9.17;73.69
10460;BME280;54412;51.206;6.888;2024-03-07T08:08:01;101616.00;;;9.48;71.12
10460;BME280;54412;51.206;6.888;2024-03-07T08:10:33;101616.06;;;9.76;70.55
10460;BME280;54412;51.206;6.888;2024-03-07T08:13:00;101624.72;;;9.79;69.06
10460;BME280;54412;51.206;6.888;2024-03-07T08:15:28;101618.81;;;9.99;67.59
10460;BME280;54412;51.206;6.888;2024-03-07T08:17:55;101622.97;;;10.07;66.17
10460;BME280;54412;51.206;6.888;2024-03-07T08:20:23;101630.06;;;10.04;66.33
10460;BME280;54412;51.206;6.888;2024-03-07T08:22:50;101623.78;;;10.08;65.53
10460;BME280;54412;51.206;6.888;2024-03-07T08:25:29;101618.53;;;10.35;64.49
10460;BME280;54412;51.206;6.888;2024-03-07T08:27:57;101616.97;;;10.54;64.62
10460;BME280;54412;51.206;6.888;2024-03-07T08:30:24;101630.66;;;10.66;63.81
10460;BME280;54412;51.206;6.888;2024-03-07T08:32:52;101633.69;;;10.80;61.77
10460;BME280;54412;51.206;6.888;2024-03-07T08:35:19;101636.88;;;10.89;58.66
10460;BME280;54412;51.206;6.888;2024-03-07T08:37:46;101633.47;;;10.86;57.01
10460;BME280;54412;51.206;6.888;2024-03-07T08:40:19;101627.28;;;11.11;55.69
10460;BME280;54412;51.206;6.888;2024-03-07T08:42:47;101625.94;;;11.46;55.77
10460;BME280;54412;51.206;6.888;2024-03-07T08:45:13;101631.13;;;11.49;54.84
10460;BME280;54412;51.206;6.888;2024-03-07T08:47:46;101629.72;;;11.62;54.28
10460;BME280;54412;51.206;6.888;2024-03-07T08:50:13;101632.56;;;11.81;52.36
10460;BME280;54412;51.206;6.888;2024-03-07T08:52:40;101625.59;;;12.01;52.75
10460;BME280;54412;51.206;6.888;2024-03-07T08:55:07;101635.50;;;11.50;50.58
10460;BME280;54412;51.206;6.888;2024-03-07T08:57:37;101623.28;;;11.47;50.40
10460;BME280;54412;51.206;6.888;2024-03-07T09:00:04;101610.53;;;11.80;51.95
10460;BME280;54412;51.206;6.888;2024-03-07T09:02:34;101619.78;;;11.92;49.85
10460;BME280;54412;51.206;6.888;2024-03-07T09:05:01;101614.88;;;12.04;51.36
10460;BME280;54412;51.206;6.888;2024-03-07T09:07:27;101609.28;;;12.12;49.39
10460;BME280;54412;51.206;6.888;2024-03-07T09:09:55;101612.03;;;12.50;50.19
10460;BME280;54412;51.206;6.888;2024-03-07T09:12:21;101601.53;;;12.89;50.34
10460;BME280;54412;51.206;6.888;2024-03-07T09:14:47;101602.75;;;13.02;51.59
10460;BME280;54412;51.206;6.888;2024-03-07T09:17:12;101602.00;;;13.56;50.73
10460;BME280;54412;51.206;6.888;2024-03-07T09:19:38;101603.28;;;13.66;49.42
10460;BME280;54412;51.206;6.888;2024-03-07T09:22:04;101605.59;;;13.36;48.29
10460;BME280;54412;51.206;6.888;2024-03-07T09:24:33;101601.28;;;12.55;48.54
10460;BME280;54412;51.206;6.888;2024-03-07T09:27:00;101597.34;;;12.84;49.45
10460;BME280;54412;51.206;6.888;2024-03-07T09:29:26;101589.81;;;13.33;49.28
10460;BME280;54412;51.206;6.888;2024-03-07T09:31:53;101593.38;;;13.70;48.58
10460;BME280;54412;51.206;6.888;2024-03-07T09:34:21;101598.34;;;13.77;48.23
10460;BME280;54412;51.206;6.888;2024-03-07T09:36:47;101598.06;;;13.83;46.78
10460;BME280;54412;51.206;6.888;2024-03-07T09:39:15;101589.81;;;13.71;46.00
10460;BME280;54412;51.206;6.888;2024-03-07T09:41:41;101592.81;;;13.44;46.85
10460;BME280;54412;51.206;6.888;2024-03-07T09:44:09;101595.59;;;13.79;46.95
10460;BME280;54412;51.206;6.888;2024-03-07T09:46:40;101589.75;;;14.26;46.48
10460;BME280;54412;51.206;6.888;2024-03-07T09:49:06;101597.22;;;14.52;46.00
10460;BME280;54412;51.206;6.888;2024-03-07T09:51:35;101596.72;;;14.10;46.20
10460;BME280;54412;51.206;6.888;2024-03-07T09:54:02;101593.91;;;13.59;50.06
10460;BME280;54412;51.206;6.888;2024-03-07T09:56:30;101590.94;;;13.28;50.50
10460;BME280;54412;51.206;6.888;2024-03-07T09:59:04;101595.19;;;12.93;50.55
10460;BME280;54412;51.206;6.888;2024-03-07T10:01:34;101591.31;;;13.00;49.15
10460;BME280;54412;51.206;6.888;2024-03-07T10:04:01;101596.50;;;12.63;50.82
10460;BME280;54412;51.206;6.888;2024-03-07T10:06:36;101594.16;;;12.76;52.97
10460;BME280;54412;51.206;6.888;2024-03-07T10:09:02;101599.44;;;12.77;50.97
10460;BME280;54412;51.206;6.888;2024-03-07T10:11:29;101580.56;;;12.65;52.61
10460;BME280;54412;51.206;6.888;2024-03-07T10:13:55;101585.63;;;12.29;51.38
10460;BME280;54412;51.206;6.888;2024-03-07T10:16:21;101584.69;;;11.88;52.55
10460;BME280;54412;51.206;6.888;2024-03-07T10:18:48;101594.88;;;11.76;52.77
10460;BME280;54412;51.206;6.888;2024-03-07T10:21:19;101595.19;;;11.45;53.13
10460;BME280;54412;51.206;6.888;2024-03-07T10:23:45;101596.75;;;11.27;54.19
10460;BME280;54412;51.206;6.888;2024-03-07T10:26:11;101589.84;;;11.23;54.47
10460;BME280;54412;51.206;6.888;2024-03-07T10:28:38;101596.63;;;11.30;54.73
10460;BME280;54412;51.206;6.888;2024-03-07T10:31:04;101581.06;;;11.23;54.09
10460;BME280;54412;51.206;6.888;2024-03-07T10:33:39;101575.22;;;11.38;53.46
10460;BME280;54412;51.206;6.888;2024-03-07T10:36:05;101572.00;;;11.96;53.26
10460;BME280;54412;51.206;6.888;2024-03-07T10:38:37;101563.16;;;12.39;51.72
10460;BME280;54412;51.206;6.888;2024-03-07T10:41:05;101569.22;;;12.81;50.64
10460;BME280;54412;51.206;6.888;2024-03-07T10:43:36;101559.16;;;13.28;48.74
10460;BME280;54412;51.206;6.888;2024-03-07T10:46:05;101562.31;;;13.54;48.34
10460;BME280;54412;51.206;6.888;2024-03-07T10:48:38;101558.41;;;13.80;47.10
10460;BME280;54412;51.206;6.888;2024-03-07T10:51:29;101560.50;;;14.09;46.46
10460;BME280;54412;51.206;6.888;2024-03-07T10:54:10;101568.81;;;13.85;47.07
10460;BME280;54412;51.206;6.888;2024-03-07T10:59:31;101549.63;;;13.80;47.21
10460;BME280;54412;51.206;6.888;2024-03-07T11:04:56;101548.41;;;13.49;48.21
10460;BME280;54412;51.206;6.888;2024-03-07T11:07:23;101539.69;;;13.29;47.99
10460;BME280;54412;51.206;6.888;2024-03-07T11:09:51;101545.44;;;13.00;48.18
10460;BME280;54412;51.206;6.888;2024-03-07T11:12:25;101547.72;;;13.82;48.24
10460;BME280;54412;51.206;6.888;2024-03-07T11:14:56;101537.44;;;13.76;46.58
10460;BME280;54412;51.206;6.888;2024-03-07T11:17:23;101531.50;;;13.71;47.15
10460;BME280;54412;51.206;6.888;2024-03-07T11:19:50;101526.09;;;13.36;46.66
10460;BME280;54412;51.206;6.888;2024-03-07T11:22:31;101519.91;;;13.90;48.43
10460;BME280;54412;51.206;6.888;2024-03-07T11:25:01;101529.75;;;14.22;47.10
10460;BME280;54412;51.206;6.888;2024-03-07T11:27:36;101528.31;;;13.81;47.30
10460;BME280;54412;51.206;6.888;2024-03-07T11:30:10;101523.03;;;13.62;47.65
10460;BME280;54412;51.206;6.888;2024-03-07T11:32:38;101512.06;;;13.70;48.06
10460;BME280;54412;51.206;6.888;2024-03-07T11:35:12;101507.09;;;13.27;48.50
10460;BME280;54412;51.206;6.888;2024-03-07T11:37:43;101502.00;;;13.41;48.76
10460;BME280;54412;51.206;6.888;2024-03-07T11:43:01;101499.59;;;13.72;48.46
10460;BME280;54412;51.206;6.888;2024-03-07T11:45:31;101489.22;;;13.68;48.64
10460;BME280;54412;51.206;6.888;2024-03-07T11:48:05;101492.22;;;13.60;47.42
10460;BME280;54412;51.206;6.888;2024-03-07T11:50:39;101480.09;;;13.73;48.59
10460;BME280;54412;51.206;6.888;2024-03-07T11:53:07;101482.19;;;13.12;48.42
10460;BME280;54412;51.206;6.888;2024-03-07T11:55:34;101477.16;;;12.88;49.54
10460;BME280;54412;51.206;6.888;2024-03-07T11:58:17;101481.16;;;12.39;48.99
10460;BME280;54412;51.206;6.888;2024-03-07T12:00:45;101463.22;;;12.25;50.60
10460;BME280;54412;51.206;6.888;2024-03-07T12:03:19;101464.78;;;12.49;51.17
10460;BME280;54412;51.206;6.888;2024-03-07T12:05:49;101461.72;;;12.58;50.44
10460;BME280;54412;51.206;6.888;2024-03-07T12:08:16;101457.88;;;12.66;50.88
10460;BME280;54412;51.206;6.888;2024-03-07T12:10:44;101464.09;;;12.26;52.18
10460;BME280;54412;51.206;6.888;2024-03-07T12:13:11;101451.16;;;12.58;50.73
10460;BME280;54412;51.206;6.888;2024-03-07T12:15:42;101443.56;;;12.31;52.89
10460;BME280;54412;51.206;6.888;2024-03-07T12:18:09;101448.19;;;12.46;53.60
10460;BME280;54412;51.206;6.888;2024-03-07T12:20:40;101442.81;;;12.47;53.02
10460;BME280;54412;51.206;6.888;2024-03-07T12:23:08;101444.81;;;12.42;53.51
10460;BME280;54412;51.206;6.888;2024-03-07T12:25:40;101435.22;;;12.01;54.09
10460;BME280;54412;51.206;6.888;2024-03-07T12:28:09;101427.28;;;12.01;53.35
10460;BME280;54412;51.206;6.888;2024-03-07T12:30:50;101430.97;;;12.17;52.94
10460;BME280;54412;51.206;6.888;2024-03-07T12:33:18;101415.69;;;12.04;52.68
10460;BME280;54412;51.206;6.888;2024-03-07T12:35:50;101420.13;;;12.03;52.88
10460;BME280;54412;51.206;6.888;2024-03-07T12:38:21;101412.78;;;12.10;53.52
10460;BME280;54412;51.206;6.888;2024-03-07T12:41:11;101403.88;;;12.12;53.22
10460;BME280;54412;51.206;6.888;2024-03-07T12:43:43;101402.28;;;12.08;53.68
10460;BME280;54412;51.206;6.888;2024-03-07T12:46:11;101396.34;;;12.03;53.42
10460;BME280;54412;51.206;6.888;2024-03-07T12:48:38;101394.22;;;11.91;53.26
10460;BME280;54412;51.206;6.888;2024-03-07T12:51:04;101390.84;;;11.88;53.05
10460;BME280;54412;51.206;6.888;2024-03-07T12:53:30;101390.72;;;11.91;52.79
10460;BME280;54412;51.206;6.888;2024-03-07T12:55:57;101393.16;;;11.95;52.67
10460;BME280;54412;51.206;6.888;2024-03-07T12:58:23;101389.06;;;12.08;51.92
10460;BME280;54412;51.206;6.888;2024-03-07T13:00:57;101390.03;;;12.06;51.86
10460;BME280;54412;51.206;6.888;2024-03-07T13:03:27;101384.09;;;12.21;51.84
10460;BME280;54412;51.206;6.888;2024-03-07T13:05:59;101382.03;;;12.07;52.12
10460;BME280;54412;51.206;6.888;2024-03-07T13:08:27;101389.25;;;11.84;52.45
10460;BME280;54412;51.206;6.888;2024-03-07T13:10:55;101388.50;;;11.60;51.29
10460;BME280;54412;51.206;6.888;2024-03-07T13:13:21;101393.22;;;11.74;50.83